Time;durP1;ratioP1;P1;durP2;ratioP2;P2;SDS_P1;SDS_P2;PMS_P1;PMS_P2;Temp;Humidity;BMP_temperature;BMP_pressure;BME280_temperature;BME280_humidity;BME280_pressure;Samples;Min_cycle;Max_cycle;Signal;HPM_P1;HPM_P2
2023/01/20 00:02:19;;;;;;;38.13;24.37;;;1.00;99.90;;;;;;5034599;28;20215;-70
2023/01/20 00:04:48;;;;;;;38.70;23.33;;;1.10;1.00;;;;;;5020996;28;20231;-68
2023/01/20 00:07:15;;;;;;;45.37;24.63;;;1.10;1.00;;;;;;5038888;28;20219;-69
2023/01/20 00:09:42;;;;;;;41.67;24.43;;;1.10;1.00;;;;;;5035336;28;20191;-70
2023/01/20 00:12:09;;;;;;;42.10;24.33;;;1.00;1.00;;;;;;5018453;28;20317;-70
2023/01/20 00:14:36;;;;;;;46.73;24.10;;;0.90;1.00;;;;;;5037522;28;20220;-70
2023/01/20 00:17:03;;;;;;;36.20;22.33;;;0.90;1.00;;;;;;5039765;28;20219;-68
2023/01/20 00:19:30;;;;;;;41.70;24.33;;;1.00;1.00;;;;;;5037434;28;20219;-68
2023/01/20 00:21:57;;;;;;;46.00;24.53;;;0.90;1.00;;;;;;5039440;28;20270;-69
2023/01/20 00:24:24;;;;;;;40.10;24.60;;;0.80;1.00;;;;;;5037958;28;20224;-68
2023/01/20 00:26:51;;;;;;;42.27;25.30;;;0.80;1.00;;;;;;5042629;28;20222;-68
2023/01/20 00:29:18;;;;;;;42.63;24.30;;;0.80;1.00;;;;;;5041359;28;20235;-68
2023/01/20 00:31:45;;;;;;;38.83;23.17;;;0.80;1.00;;;;;;5058193;28;20600;-68
2023/01/20 00:34:12;;;;;;;39.17;24.03;;;0.70;1.00;;;;;;5041861;28;20792;-69
2023/01/20 00:36:39;;;;;;;44.53;24.43;;;0.80;99.90;;;;;;5058211;28;20202;-70
2023/01/20 00:39:06;;;;;;;39.67;24.73;;;0.90;99.90;;;;;;5034264;28;20210;-68
2023/01/20 00:41:33;;;;;;;45.20;24.80;;;0.80;69.90;;;;;;5042544;28;20667;-68
2023/01/20 00:44:00;;;;;;;46.30;25.73;;;0.90;84.50;;;;;;5009771;28;20202;-68
2023/01/20 00:46:27;;;;;;;40.90;24.50;;;0.90;39.00;;;;;;5025394;28;20289;-68
2023/01/20 00:48:54;;;;;;;41.03;24.03;;;0.90;34.80;;;;;;5061956;28;20310;-69
2023/01/20 00:51:21;;;;;;;47.50;25.10;;;0.80;28.90;;;;;;5060908;28;20282;-68
2023/01/20 00:53:48;;;;;;;45.97;24.47;;;0.90;64.80;;;;;;5058825;28;20273;-69
2023/01/20 00:56:19;;;;;;;44.53;22.47;;;0.80;68.10;;;;;;5058738;28;20525;-69
2023/01/20 00:58:45;;;;;;;35.43;23.33;;;0.80;98.30;;;;;;5060186;28;20315;-69
2023/01/20 01:01:13;;;;;;;40.00;23.57;;;0.80;99.90;;;;;;5040670;28;20222;-67
2023/01/20 01:03:40;;;;;;;42.83;24.77;;;0.80;99.90;;;;;;5041743;28;20215;-68
2023/01/20 01:06:14;;;;;;;41.87;25.33;;;0.80;99.90;;;;;;5040752;28;20202;-68
2023/01/20 01:08:42;;;;;;;45.73;24.63;;;0.70;79.90;;;;;;5001823;28;20201;-68
2023/01/20 01:11:10;;;;;;;44.13;24.63;;;0.70;99.90;;;;;;5038488;28;20199;-68
2023/01/20 01:13:37;;;;;;;46.70;24.83;;;0.70;99.90;;;;;;5059244;28;20222;-68
2023/01/20 01:16:13;;;;;;;41.70;26.00;;;0.80;99.90;;;;;;5059032;28;20241;-69
2023/01/20 01:18:41;;;;;;;48.17;25.80;;;0.80;99.90;;;;;;5042577;28;20195;-68
2023/01/20 01:21:10;;;;;;;44.57;26.43;;;1.00;99.90;;;;;;5059917;28;20200;-69
2023/01/20 01:23:37;;;;;;;46.43;27.07;;;1.00;99.90;;;;;;5057365;28;20629;-69
2023/01/20 01:26:04;;;;;;;43.37;25.90;;;1.00;44.80;;;;;;5042905;28;20761;-67
2023/01/20 01:28:33;;;;;;;40.47;24.83;;;1.00;1.00;;;;;;5032585;28;20741;-70
2023/01/20 01:31:04;;;;;;;40.10;25.60;;;1.00;1.00;;;;;;5060741;28;20224;-67
2023/01/20 01:33:32;;;;;;;45.60;25.03;;;1.00;1.00;;;;;;5010075;28;20682;-68
2023/01/20 01:36:01;;;;;;;47.37;24.60;;;1.00;1.00;;;;;;5060545;28;20219;-69
2023/01/20 01:38:28;;;;;;;46.60;25.83;;;1.00;1.00;;;;;;5025278;28;20192;-70
2023/01/20 01:40:55;;;;;;;48.37;26.37;;;1.00;1.00;;;;;;5057414;28;20278;-69
2023/01/20 01:43:27;;;;;;;48.27;28.97;;;1.10;1.00;;;;;;5040535;28;20204;-70
2023/01/20 01:45:54;;;;;;;55.63;29.80;;;1.10;1.00;;;;;;5042085;28;20566;-68
2023/01/20 01:48:26;;;;;;;55.77;32.70;;;0.90;1.00;;;;;;5060783;28;20205;-69
2023/01/20 01:51:04;;;;;;;52.43;28.87;;;0.90;1.00;;;;;;5043751;28;20203;-68
2023/01/20 01:53:38;;;;;;;52.77;29.70;;;0.90;1.00;;;;;;5037477;28;20238;-68
2023/01/20 01:56:06;;;;;;;57.70;30.90;;;1.00;1.00;;;;;;5050899;28;20309;-68
2023/01/20 01:58:37;;;;;;;51.23;31.87;;;1.00;1.00;;;;;;5026573;28;20221;-68
2023/01/20 02:01:04;;;;;;;56.97;32.63;;;1.10;1.00;;;;;;5058605;28;20736;-68
2023/01/20 02:03:40;;;;;;;52.40;31.67;;;1.20;1.00;;;;;;5055147;28;20223;-68
2023/01/20 02:06:09;;;;;;;56.43;32.00;;;1.20;1.00;;;;;;5060179;28;20195;-67
2023/01/20 02:08:37;;;;;;;58.83;33.63;;;1.20;1.00;;;;;;5055808;28;20729;-67
2023/01/20 02:11:04;;;;;;;58.27;34.40;;;1.30;1.00;;;;;;5059461;28;20198;-67
2023/01/20 02:13:31;;;;;;;55.07;30.60;;;1.30;99.90;;;;;;5058458;28;20220;-67
2023/01/20 02:16:13;;;;;;;57.53;32.60;;;1.30;99.90;;;;;;5058920;28;20212;-67
2023/01/20 02:18:57;;;;;;;57.53;32.23;;;1.30;99.90;;;;;;5023932;28;20199;-68
2023/01/20 02:21:24;;;;;;;59.47;33.87;;;1.40;99.90;;;;;;5058788;28;20221;-67
2023/01/20 02:23:57;;;;;;;57.73;33.67;;;1.30;99.90;;;;;;5047786;28;20204;-67
2023/01/20 02:27:09;;;;;;;54.07;33.23;;;1.30;99.90;;;;;;5056295;28;20717;-67
2023/01/20 02:30:10;;;;;;;58.13;31.53;;;1.30;99.90;;;;;;5019735;28;20258;-66
2023/01/20 02:32:54;;;;;;;59.63;30.70;;;1.40;99.90;;;;;;5010882;28;20293;-67
2023/01/20 02:36:01;;;;;;;51.67;29.50;;;1.30;99.90;;;;;;5056933;28;20210;-67
2023/01/20 02:38:36;;;;;;;54.13;29.87;;;1.40;99.90;;;;;;5024378;28;20961;-67
2023/01/20 02:41:16;;;;;;;49.47;29.93;;;1.40;99.90;;;;;;5039069;28;20191;-67
2023/01/20 02:43:50;;;;;;;50.87;29.17;;;1.40;99.90;;;;;;5053633;28;20210;-67
2023/01/20 02:46:32;;;;;;;47.27;28.23;;;1.30;99.90;;;;;;5056285;28;20670;-68
2023/01/20 02:49:26;;;;;;;52.90;29.37;;;1.30;99.90;;;;;;5024710;28;20227;-68
2023/01/20 02:52:02;;;;;;;52.33;29.67;;;1.30;99.90;;;;;;5023034;28;20227;-68
2023/01/20 02:54:33;;;;;;;50.83;28.80;;;1.30;99.90;;;;;;5038192;28;20227;-73
2023/01/20 02:57:04;;;;;;;50.30;30.10;;;1.30;99.90;;;;;;5054336;28;20187;-68
2023/01/20 02:59:36;;;;;;;45.80;29.37;;;1.40;1.00;;;;;;5059325;28;20210;-68
2023/01/20 03:02:09;;;;;;;44.10;29.43;;;1.40;1.00;;;;;;5040874;28;20192;-69
2023/01/20 03:04:42;;;;;;;43.70;28.07;;;1.40;1.00;;;;;;5024826;28;21130;-68
2023/01/20 03:07:11;;;;;;;52.60;28.60;;;1.40;1.00;;;;;;5056530;28;20209;-69
2023/01/20 03:09:43;;;;;;;56.80;30.30;;;1.40;1.00;;;;;;5055318;28;20259;-70
2023/01/20 03:12:25;;;;;;;54.97;29.90;;;1.40;1.00;;;;;;5040404;28;20710;-72
2023/01/20 03:14:53;;;;;;;48.60;29.67;;;1.50;1.00;;;;;;5042363;28;20215;-71
2023/01/20 03:17:20;;;;;;;50.77;28.60;;;1.50;1.00;;;;;;5040088;28;20639;-70
2023/01/20 03:19:48;;;;;;;53.57;30.00;;;1.50;1.00;;;;;;5058181;28;20702;-70
2023/01/20 03:22:15;;;;;;;52.23;28.13;;;1.50;1.00;;;;;;5041028;28;20230;-70
2023/01/20 03:24:45;;;;;;;46.57;26.43;;;1.50;1.00;;;;;;5040172;28;20667;-70
2023/01/20 03:27:12;;;;;;;51.00;28.60;;;1.50;1.00;;;;;;5040481;28;20244;-70
2023/01/20 03:29:39;;;;;;;52.80;29.83;;;1.50;99.90;;;;;;5058572;28;20756;-70
2023/01/20 03:32:09;;;;;;;51.27;29.40;;;1.50;99.90;;;;;;5040928;28;20202;-68
2023/01/20 03:34:38;;;;;;;48.97;29.93;;;1.50;99.90;;;;;;5055685;28;20215;-69
2023/01/20 03:37:06;;;;;;;44.47;27.50;;;1.50;99.90;;;;;;5020300;28;20191;-69
2023/01/20 03:39:38;;;;;;;50.80;29.43;;;1.50;99.90;;;;;;5056069;28;20195;-68
2023/01/20 03:42:08;;;;;;;46.97;27.67;;;1.50;99.90;;;;;;5050518;28;20793;-68
2023/01/20 03:44:55;;;;;;;49.37;28.50;;;1.40;99.90;;;;;;5055870;28;20779;-69
2023/01/20 03:47:45;;;;;;;43.33;25.83;;;1.40;99.90;;;;;;5060999;28;20218;-69
2023/01/20 03:50:39;;;;;;;45.57;27.17;;;1.40;99.90;;;;;;5058648;28;20286;-69
2023/01/20 03:53:30;;;;;;;44.60;26.33;;;1.40;99.90;;;;;;5039845;28;20644;-71
2023/01/20 03:56:03;;;;;;;47.30;28.43;;;1.40;99.90;;;;;;5041295;28;20304;-71
2023/01/20 03:58:38;;;;;;;48.97;31.23;;;1.50;99.90;;;;;;5059423;28;20195;-70
2023/01/20 04:01:08;;;;;;;47.83;28.50;;;1.40;99.90;;;;;;5055604;28;20277;-70
2023/01/20 04:03:49;;;;;;;47.83;27.23;;;1.40;99.90;;;;;;5042918;28;20234;-71
2023/01/20 04:06:18;;;;;;;50.23;27.43;;;1.40;99.90;;;;;;5024517;28;21121;-70
2023/01/20 04:08:51;;;;;;;45.17;26.60;;;1.40;99.90;;;;;;5025621;28;21107;-70
2023/01/20 04:11:18;;;;;;;45.00;26.60;;;1.40;99.90;;;;;;5040474;28;20293;-70
2023/01/20 04:13:45;;;;;;;48.07;27.47;;;1.30;99.90;;;;;;5058157;28;20231;-71
2023/01/20 04:16:15;;;;;;;43.17;27.40;;;1.30;99.90;;;;;;5054934;28;20736;-69
2023/01/20 04:18:46;;;;;;;48.97;28.57;;;1.40;99.90;;;;;;5062430;28;20201;-69
2023/01/20 04:21:20;;;;;;;51.37;29.17;;;1.30;99.90;;;;;;5043552;28;20238;-69
2023/01/20 04:23:59;;;;;;;53.70;31.30;;;1.30;99.90;;;;;;5058082;28;20198;-70
2023/01/20 04:26:26;;;;;;;57.17;32.03;;;1.30;99.90;;;;;;5062702;28;20229;-70
2023/01/20 04:28:52;;;;;;;49.57;31.00;;;1.30;99.90;;;;;;5041723;28;20245;-70
2023/01/20 04:31:19;;;;;;;56.83;33.77;;;1.30;99.90;;;;;;5059212;28;20313;-70
2023/01/20 04:33:57;;;;;;;49.33;28.63;;;1.40;99.90;;;;;;5026435;28;20222;-68
2023/01/20 04:36:24;;;;;;;52.27;29.23;;;1.40;99.90;;;;;;5040690;28;20203;-70
2023/01/20 04:38:51;;;;;;;50.23;29.50;;;1.40;99.90;;;;;;5057004;28;20195;-70
2023/01/20 04:41:18;;;;;;;48.33;27.63;;;1.40;99.90;;;;;;5059667;28;20204;-70
2023/01/20 04:43:45;;;;;;;50.03;28.33;;;1.40;99.90;;;;;;5039813;28;20199;-68
2023/01/20 04:46:14;;;;;;;47.33;27.33;;;1.40;99.90;;;;;;5040576;28;20210;-69
2023/01/20 04:48:43;;;;;;;49.57;30.67;;;1.40;99.90;;;;;;5046675;28;20277;-69
2023/01/20 04:51:10;;;;;;;49.40;27.43;;;1.40;99.90;;;;;;5055151;28;20264;-68
2023/01/20 04:53:37;;;;;;;49.77;31.10;;;1.40;99.90;;;;;;5040110;28;20199;-69
2023/01/20 04:56:10;;;;;;;51.23;28.40;;;1.40;99.90;;;;;;5061569;28;20207;-68
2023/01/20 04:58:37;;;;;;;53.77;29.00;;;1.40;99.90;;;;;;5011218;28;20420;-69
2023/01/20 05:01:04;;;;;;;47.83;29.17;;;1.50;99.90;;;;;;5044168;28;20211;-68
2023/01/20 05:03:32;;;;;;;49.90;29.47;;;1.50;99.90;;;;;;5060856;28;20206;-68
2023/01/20 05:05:59;;;;;;;51.00;30.27;;;1.40;99.90;;;;;;5041848;28;20323;-71
2023/01/20 05:08:26;;;;;;;50.87;28.07;;;1.40;99.90;;;;;;5040032;28;20200;-70
2023/01/20 05:10:53;;;;;;;49.60;29.90;;;1.40;99.90;;;;;;5041090;28;20337;-69
2023/01/20 05:13:19;;;;;;;53.00;30.17;;;1.40;99.90;;;;;;5059278;28;20675;-69
2023/01/20 05:15:46;;;;;;;50.57;31.50;;;1.40;99.90;;;;;;5062722;28;20217;-69
2023/01/20 05:18:13;;;;;;;53.37;30.80;;;1.50;99.90;;;;;;5041637;28;20549;-70
2023/01/20 05:20:44;;;;;;;53.17;31.07;;;1.40;99.90;;;;;;5042214;28;20618;-69
2023/01/20 05:23:11;;;;;;;50.03;30.63;;;1.40;99.90;;;;;;5056528;28;20222;-68
2023/01/20 05:25:38;;;;;;;54.77;30.93;;;1.40;99.90;;;;;;5060549;28;20198;-69
2023/01/20 05:28:05;;;;;;;58.13;32.83;;;1.40;99.90;;;;;;5040596;28;20254;-69
2023/01/20 05:30:33;;;;;;;58.97;32.90;;;1.40;99.90;;;;;;5062546;28;20235;-69
2023/01/20 05:33:00;;;;;;;55.67;31.30;;;1.50;99.90;;;;;;5042787;28;20242;-69
2023/01/20 05:35:27;;;;;;;52.47;31.13;;;1.50;99.90;;;;;;5058474;28;20780;-69
2023/01/20 05:37:55;;;;;;;48.83;29.70;;;1.40;99.90;;;;;;5055305;28;20184;-69
2023/01/20 05:40:22;;;;;;;49.93;30.27;;;1.50;1.00;;;;;;5057633;28;20250;-69
2023/01/20 05:42:49;;;;;;;48.27;29.40;;;1.50;99.90;;;;;;5027044;28;20698;-69
2023/01/20 05:45:16;;;;;;;50.60;29.50;;;1.50;99.90;;;;;;5059501;28;20553;-69
2023/01/20 05:47:43;;;;;;;56.37;29.23;;;1.50;99.90;;;;;;5050178;28;20284;-69
2023/01/20 05:50:11;;;;;;;47.10;28.43;;;1.50;1.00;;;;;;5061355;28;20261;-69
2023/01/20 05:52:38;;;;;;;48.10;27.97;;;1.50;99.90;;;;;;5039241;28;20249;-69
2023/01/20 05:55:05;;;;;;;44.53;26.83;;;1.50;99.90;;;;;;5056027;28;20695;-69
2023/01/20 05:57:32;;;;;;;46.07;27.07;;;1.50;99.90;;;;;;5058293;28;20191;-69
2023/01/20 05:59:59;;;;;;;43.07;26.47;;;1.50;99.90;;;;;;5040750;28;20196;-69
2023/01/20 06:02:29;;;;;;;38.07;24.27;;;1.50;99.90;;;;;;5049116;28;20192;-69
2023/01/20 06:05:00;;;;;;;38.50;23.30;;;1.50;99.90;;;;;;5042829;28;20218;-69
2023/01/20 06:07:28;;;;;;;38.80;24.63;;;1.60;99.90;;;;;;5059406;28;20282;-70
2023/01/20 06:09:56;;;;;;;38.67;24.07;;;1.50;99.90;;;;;;5057629;28;20225;-70
2023/01/20 06:12:23;;;;;;;40.67;24.03;;;1.50;99.90;;;;;;5039765;28;20194;-70
2023/01/20 06:14:53;;;;;;;43.50;23.47;;;1.50;99.90;;;;;;5059416;28;20196;-70
2023/01/20 06:17:20;;;;;;;44.00;25.17;;;1.50;99.90;;;;;;5055335;28;20199;-71
2023/01/20 06:19:47;;;;;;;41.10;24.87;;;1.50;99.90;;;;;;5057893;28;20706;-69
2023/01/20 06:22:15;;;;;;;41.83;28.30;;;1.50;99.90;;;;;;5042479;28;20739;-69
2023/01/20 06:24:41;;;;;;;42.80;27.70;;;1.40;99.90;;;;;;5059289;28;20215;-70
2023/01/20 06:27:09;;;;;;;41.93;25.17;;;1.40;99.90;;;;;;5060407;28;20286;-70
2023/01/20 06:29:39;;;;;;;41.87;25.03;;;1.40;99.90;;;;;;5036282;28;20228;-69
2023/01/20 06:32:06;;;;;;;41.60;25.33;;;1.40;99.90;;;;;;5037605;28;20648;-69
2023/01/20 06:34:33;;;;;;;40.60;24.80;;;1.40;99.90;;;;;;5039815;28;20536;-69
2023/01/20 06:37:01;;;;;;;37.87;24.53;;;1.40;99.90;;;;;;5037628;28;20273;-68
2023/01/20 06:39:28;;;;;;;39.23;25.00;;;1.50;99.90;;;;;;5041107;28;20188;-69
2023/01/20 06:41:59;;;;;;;39.37;23.13;;;1.40;99.90;;;;;;5022422;28;20674;-68
2023/01/20 06:44:27;;;;;;;41.67;23.87;;;1.40;99.90;;;;;;5037312;28;20600;-68
2023/01/20 06:46:56;;;;;;;38.13;23.83;;;1.50;99.90;;;;;;5013253;28;20651;-70
2023/01/20 06:49:23;;;;;;;37.83;22.30;;;1.40;99.90;;;;;;5037619;28;20196;-69
2023/01/20 06:51:51;;;;;;;37.17;22.23;;;1.40;99.90;;;;;;5040835;28;20206;-68
2023/01/20 06:54:21;;;;;;;35.37;20.97;;;1.50;99.90;;;;;;5054219;28;20191;-69
2023/01/20 06:59:42;;;;;;;33.77;20.77;;;1.50;99.90;;;;;;5040426;28;20211;-69
2023/01/20 07:02:12;;;;;;;33.37;19.70;;;1.40;99.90;;;;;;5037982;28;20200;-68
2023/01/20 07:04:39;;;;;;;34.10;19.60;;;1.40;99.90;;;;;;5025828;28;20250;-69
2023/01/20 07:07:10;;;;;;;27.93;17.60;;;1.40;99.90;;;;;;5040088;28;20226;-69
2023/01/20 07:09:37;;;;;;;30.77;18.50;;;1.40;99.90;;;;;;5032327;28;20223;-70
2023/01/20 07:12:05;;;;;;;29.30;16.70;;;1.50;99.90;;;;;;5033593;28;20549;-69
2023/01/20 07:14:32;;;;;;;27.43;16.13;;;1.40;99.90;;;;;;5012255;28;20196;-69
2023/01/20 07:16:59;;;;;;;31.97;17.40;;;1.40;99.90;;;;;;5024734;28;20310;-66
2023/01/20 07:19:26;;;;;;;30.33;16.87;;;1.40;99.90;;;;;;5029486;28;20187;-67
2023/01/20 07:21:55;;;;;;;28.23;16.17;;;1.50;99.90;;;;;;5020210;28;20807;-68
2023/01/20 07:24:22;;;;;;;36.03;17.60;;;1.40;99.90;;;;;;5036801;28;20203;-69
2023/01/20 07:26:52;;;;;;;28.67;17.90;;;1.40;99.90;;;;;;5037075;28;20392;-69
2023/01/20 07:29:19;;;;;;;30.70;18.07;;;1.40;99.90;;;;;;5017673;28;20279;-69
2023/01/20 07:32:01;;;;;;;29.70;18.90;;;1.40;99.90;;;;;;5010463;28;20330;-68
2023/01/20 07:34:28;;;;;;;50.03;20.33;;;1.40;99.90;;;;;;5038883;28;20235;-69
2023/01/20 07:36:55;;;;;;;29.80;17.60;;;1.50;99.90;;;;;;5038281;28;20291;-69
2023/01/20 07:39:22;;;;;;;41.47;20.80;;;1.50;99.90;;;;;;5055667;28;20283;-69
2023/01/20 07:41:49;;;;;;;32.70;18.23;;;1.50;99.90;;;;;;5057717;28;20196;-69
2023/01/20 07:44:16;;;;;;;35.07;19.40;;;1.40;99.90;;;;;;5023675;28;20199;-68
2023/01/20 07:46:43;;;;;;;32.30;19.07;;;1.40;99.90;;;;;;5056299;28;20433;-72
2023/01/20 07:49:11;;;;;;;31.27;18.93;;;1.40;99.90;;;;;;5054219;28;20667;-69
2023/01/20 07:51:38;;;;;;;33.07;19.13;;;1.40;99.90;;;;;;5029705;28;20199;-69
2023/01/20 07:54:05;;;;;;;32.73;20.13;;;1.40;99.90;;;;;;5037455;28;20260;-68
2023/01/20 07:56:32;;;;;;;35.57;20.17;;;1.50;99.90;;;;;;5055054;28;20214;-68
2023/01/20 07:59:00;;;;;;;47.70;27.37;;;1.50;99.90;;;;;;5037651;28;20196;-68
2023/01/20 08:01:29;;;;;;;41.87;24.50;;;1.50;99.90;;;;;;5037743;28;20647;-68
2023/01/20 08:03:59;;;;;;;37.70;20.63;;;1.50;99.90;;;;;;5026628;28;20587;-69
2023/01/20 08:06:27;;;;;;;35.40;21.63;;;1.50;99.90;;;;;;5039677;28;20203;-70
2023/01/20 08:08:54;;;;;;;39.30;21.43;;;1.50;99.90;;;;;;5037374;28;20858;-69
2023/01/20 08:11:24;;;;;;;36.73;20.40;;;1.50;99.90;;;;;;5056486;28;20635;-68
2023/01/20 08:13:52;;;;;;;35.07;20.73;;;1.60;99.90;;;;;;5046045;28;20621;-68
2023/01/20 08:16:19;;;;;;;33.10;20.03;;;1.60;99.90;;;;;;5004344;28;20221;-68
2023/01/20 08:18:47;;;;;;;35.03;19.60;;;1.60;99.90;;;;;;5055572;28;20205;-69
2023/01/20 08:21:25;;;;;;;30.23;19.37;;;1.60;99.90;;;;;;5020706;28;20437;-69
2023/01/20 08:23:55;;;;;;;31.30;19.23;;;1.60;99.90;;;;;;5054345;28;20192;-68
2023/01/20 08:26:27;;;;;;;34.17;19.53;;;1.60;99.90;;;;;;5015871;28;20575;-69
2023/01/20 08:28:55;;;;;;;34.17;19.67;;;1.70;99.90;;;;;;5022161;28;20744;-68
2023/01/20 08:31:23;;;;;;;27.50;16.77;;;1.70;99.90;;;;;;5032182;28;20215;-68
2023/01/20 08:33:54;;;;;;;27.73;16.70;;;1.70;99.90;;;;;;5038475;28;21113;-68
2023/01/20 08:36:24;;;;;;;25.23;15.20;;;1.70;87.60;;;;;;5035686;28;20231;-68
2023/01/20 08:38:52;;;;;;;26.33;16.93;;;1.80;21.10;;;;;;5017000;28;20235;-68
2023/01/20 08:41:24;;;;;;;24.67;15.90;;;1.70;17.80;;;;;;5037327;28;20593;-72
2023/01/20 08:43:51;;;;;;;26.43;15.73;;;1.70;23.80;;;;;;5037829;28;20349;-68
2023/01/20 08:46:19;;;;;;;26.00;15.43;;;1.70;9.30;;;;;;5036634;28;20227;-68
2023/01/20 08:48:48;;;;;;;24.33;15.00;;;1.70;18.40;;;;;;5052732;28;20347;-67
2023/01/20 08:51:30;;;;;;;29.53;17.00;;;1.80;20.60;;;;;;5037280;28;21223;-69
2023/01/20 08:53:58;;;;;;;26.53;16.33;;;1.80;1.00;;;;;;5037362;28;20202;-68
2023/01/20 08:56:25;;;;;;;26.50;15.23;;;1.80;1.00;;;;;;5032791;28;20362;-67
2023/01/20 08:58:52;;;;;;;27.27;16.43;;;1.80;5.10;;;;;;5034470;28;20200;-68
2023/01/20 09:01:25;;;;;;;29.63;15.90;;;1.90;1.00;;;;;;5037226;28;20196;-68
2023/01/20 09:03:53;;;;;;;25.50;15.77;;;1.90;1.00;;;;;;5037435;28;20214;-68
2023/01/20 09:06:44;;;;;;;28.53;16.27;;;1.90;1.00;;;;;;5038573;28;20187;-67
2023/01/20 09:09:12;;;;;;;27.77;16.77;;;2.00;1.00;;;;;;5067637;28;20440;-68
2023/01/20 09:11:39;;;;;;;26.77;16.93;;;2.00;1.00;;;;;;5035588;28;20204;-68
2023/01/20 09:14:06;;;;;;;24.40;14.50;;;2.00;1.00;;;;;;5035373;28;20733;-67
2023/01/20 09:16:34;;;;;;;27.37;16.17;;;2.00;1.00;;;;;;5035404;28;20226;-67
2023/01/20 09:19:02;;;;;;;26.43;16.17;;;2.10;1.00;;;;;;5033269;28;20200;-67
2023/01/20 09:21:29;;;;;;;28.23;17.10;;;2.10;1.00;;;;;;5049192;28;20676;-67
2023/01/20 09:23:56;;;;;;;25.53;15.73;;;2.20;1.00;;;;;;5034196;28;20282;-67
2023/01/20 09:26:23;;;;;;;23.53;15.77;;;2.20;1.00;;;;;;5036528;28;20223;-68
2023/01/20 09:29:07;;;;;;;21.17;13.97;;;2.20;1.00;;;;;;5023596;28;20258;-68
2023/01/20 09:31:50;;;;;;;23.33;14.00;;;2.30;1.00;;;;;;5057398;28;20187;-68
2023/01/20 09:34:23;;;;;;;23.53;14.23;;;2.30;1.00;;;;;;5025389;28;20556;-68
2023/01/20 09:36:55;;;;;;;22.57;14.97;;;2.30;1.00;;;;;;5036728;28;20208;-68
2023/01/20 09:45:34;;;;;;;24.23;15.40;;;2.50;1.00;;;;;;5037625;28;20199;-68
2023/01/20 09:54:53;;;;;;;21.60;14.17;;;2.50;1.00;;;;;;5039470;28;20253;-68
2023/01/20 09:57:24;;;;;;;22.20;13.83;;;2.50;1.00;;;;;;5023861;28;20215;-68
2023/01/20 10:00:00;;;;;;;28.93;16.00;;;2.60;1.00;;;;;;5023929;28;20233;-68
2023/01/20 10:02:32;;;;;;;21.93;14.43;;;2.60;1.00;;;;;;5053729;28;20195;-68
2023/01/20 10:05:22;;;;;;;24.83;15.00;;;2.70;1.00;;;;;;5021202;28;20214;-68
2023/01/20 10:07:59;;;;;;;24.10;15.33;;;2.70;1.00;;;;;;5048976;28;20187;-68
2023/01/20 10:10:31;;;;;;;22.17;14.53;;;2.70;1.00;;;;;;5069433;28;20195;-68
2023/01/20 10:13:07;;;;;;;25.20;15.87;;;2.90;1.00;;;;;;5055820;28;20227;-68
2023/01/20 10:15:36;;;;;;;25.63;15.70;;;2.90;1.00;;;;;;5041244;28;20601;-68
2023/01/20 10:18:08;;;;;;;20.13;13.60;;;3.10;1.00;;;;;;5039154;28;20209;-68
2023/01/20 10:20:40;;;;;;;21.47;13.90;;;3.40;1.00;;;;;;5015871;28;20665;-68
2023/01/20 10:23:16;;;;;;;19.63;12.27;;;3.20;1.00;;;;;;5038687;28;20186;-67
2023/01/20 10:25:48;;;;;;;18.20;13.00;;;3.20;1.00;;;;;;5020597;28;20536;-67
2023/01/20 10:28:26;;;;;;;18.60;13.97;;;3.10;1.00;;;;;;5037158;28;20670;-71
2023/01/20 10:30:56;;;;;;;21.33;12.77;;;3.20;1.00;;;;;;5042175;28;20235;-67
2023/01/20 10:33:30;;;;;;;20.83;13.87;;;3.20;1.00;;;;;;5020397;28;20204;-69
2023/01/20 10:35:59;;;;;;;18.17;10.33;;;3.20;1.00;;;;;;5049617;28;20258;-67
2023/01/20 10:38:51;;;;;;;16.77;11.40;;;3.20;1.00;;;;;;5018250;28;20208;-67
2023/01/20 10:41:26;;;;;;;15.67;10.60;;;3.10;1.00;;;;;;5035194;28;22608;-68
2023/01/20 10:43:54;;;;;;;18.83;10.90;;;3.10;1.00;;;;;;5038760;28;20202;-68
2023/01/20 10:46:43;;;;;;;19.03;13.07;;;3.10;1.00;;;;;;5030193;28;20257;-69
2023/01/20 10:49:20;;;;;;;20.73;13.00;;;2.90;1.00;;;;;;5032003;28;20204;-69
2023/01/20 10:52:12;;;;;;;18.47;11.57;;;2.90;1.00;;;;;;5034861;28;20606;-68
2023/01/20 10:54:53;;;;;;;16.93;12.20;;;2.90;1.00;;;;;;5019811;28;20685;-68
2023/01/20 10:57:20;;;;;;;13.20;9.40;;;3.10;1.00;;;;;;5032926;28;20495;-69
2023/01/20 10:59:52;;;;;;;14.20;9.70;;;3.10;1.00;;;;;;5034087;28;20282;-67
2023/01/20 11:02:26;;;;;;;14.93;9.00;;;2.90;1.00;;;;;;5032904;28;20281;-68
2023/01/20 11:05:43;;;;;;;14.57;10.70;;;3.00;1.00;;;;;;5030454;28;20591;-68
2023/01/20 11:08:19;;;;;;;14.87;9.50;;;2.90;1.00;;;;;;5010928;28;20227;-67
2023/01/20 11:10:51;;;;;;;13.00;7.97;;;2.90;1.00;;;;;;5034753;28;20188;-68
2023/01/20 11:13:17;;;;;;;15.07;9.03;;;2.80;1.00;;;;;;5035809;28;20227;-67
2023/01/20 11:15:50;;;;;;;13.60;9.83;;;2.90;1.00;;;;;;5018842;28;20196;-69
2023/01/20 11:18:17;;;;;;;14.50;9.07;;;2.90;1.00;;;;;;5017868;28;20750;-69
2023/01/20 11:20:51;;;;;;;12.33;8.73;;;2.80;1.00;;;;;;5034209;28;20215;-68
2023/01/20 11:23:34;;;;;;;13.27;9.83;;;3.00;1.00;;;;;;5033805;28;20200;-68
2023/01/20 11:26:09;;;;;;;12.53;10.17;;;3.10;1.00;;;;;;5049020;28;20726;-68
2023/01/20 11:28:50;;;;;;;14.27;9.07;;;3.10;1.00;;;;;;5034243;28;20183;-67
2023/01/20 11:31:17;;;;;;;16.87;11.33;;;3.10;1.00;;;;;;5036284;28;20236;-69
2023/01/20 11:33:58;;;;;;;14.97;11.20;;;3.10;1.00;;;;;;5032613;28;20204;-68
2023/01/20 11:36:26;;;;;;;18.13;10.50;;;3.00;1.00;;;;;;5036459;28;20651;-69
2023/01/20 11:38:55;;;;;;;15.07;11.07;;;3.20;1.00;;;;;;5036982;28;20599;-68
2023/01/20 11:41:25;;;;;;;13.50;9.73;;;3.10;1.00;;;;;;5035816;28;20651;-67
2023/01/20 11:43:57;;;;;;;14.27;9.37;;;3.00;1.00;;;;;;5032436;28;20269;-70
2023/01/20 11:46:32;;;;;;;17.17;10.87;;;3.10;1.00;;;;;;5037361;28;20249;-67
2023/01/20 11:49:21;;;;;;;15.20;9.90;;;3.00;1.00;;;;;;5034135;28;20188;-67
2023/01/20 11:51:56;;;;;;;15.40;9.73;;;3.00;1.00;;;;;;5018590;28;20774;-68
2023/01/20 11:54:28;;;;;;;13.37;9.93;;;3.00;1.00;;;;;;5036623;28;20729;-69
2023/01/20 11:57:09;;;;;;;14.83;9.83;;;3.20;1.00;;;;;;5037111;28;20226;-68
2023/01/20 11:59:48;;;;;;;13.03;9.47;;;3.30;1.00;;;;;;5034879;28;20186;-69
2023/01/20 12:02:23;;;;;;;13.63;8.23;;;3.30;1.00;;;;;;5002794;28;20200;-68
2023/01/20 12:05:22;;;;;;;12.77;8.77;;;3.50;1.00;;;;;;5034737;28;20211;-68
2023/01/20 12:07:51;;;;;;;17.77;12.10;;;3.50;1.00;;;;;;5033651;28;20629;-67
2023/01/20 12:10:28;;;;;;;13.47;8.47;;;3.70;1.00;;;;;;5038247;28;20745;-68
2023/01/20 12:13:21;;;;;;;10.47;7.53;;;4.00;1.00;;;;;;5038969;28;20199;-68
2023/01/20 12:15:53;;;;;;;8.63;6.50;;;4.30;1.00;;;;;;5040720;28;20191;-68
2023/01/20 12:18:33;;;;;;;9.53;6.60;;;4.00;1.00;;;;;;5037885;28;20215;-70
2023/01/20 12:21:09;;;;;;;12.17;7.20;;;3.80;1.00;;;;;;5039213;28;20192;-69
2023/01/20 12:23:58;;;;;;;11.57;7.57;;;3.60;1.00;;;;;;5038571;28;20199;-72
2023/01/20 12:26:30;;;;;;;12.13;8.70;;;3.70;1.00;;;;;;5038600;28;20196;-68
2023/01/20 12:29:23;;;;;;;11.23;7.23;;;3.90;1.00;;;;;;5040431;28;20201;-68
2023/01/20 12:31:50;;;;;;;12.87;7.87;;;4.00;1.00;;;;;;5060999;28;20223;-68
2023/01/20 12:34:26;;;;;;;13.70;9.03;;;3.80;1.00;;;;;;5062542;28;20205;-68
2023/01/20 12:37:03;;;;;;;13.47;8.60;;;3.90;1.00;;;;;;5043642;28;20211;-68
2023/01/20 12:39:57;;;;;;;12.33;8.90;;;3.60;1.00;;;;;;5028053;28;20195;-68
2023/01/20 12:43:12;;;;;;;12.20;9.27;;;3.60;1.00;;;;;;5053163;28;20253;-68
2023/01/20 12:46:08;;;;;;;17.80;10.47;;;3.40;1.00;;;;;;5005243;28;20198;-68
2023/01/20 12:49:03;;;;;;;16.97;11.83;;;3.40;1.00;;;;;;5042704;28;20202;-68
2023/01/20 12:51:57;;;;;;;24.37;14.57;;;3.40;1.00;;;;;;5016687;28;20231;-67
2023/01/20 12:54:39;;;;;;;14.13;8.57;;;3.40;1.00;;;;;;5063105;28;20226;-68
2023/01/20 12:57:38;;;;;;;14.73;9.67;;;3.50;1.00;;;;;;5043562;28;20225;-68
2023/01/20 13:00:33;;;;;;;18.57;10.20;;;3.80;1.00;;;;;;5059134;28;20187;-68
2023/01/20 13:03:23;;;;;;;14.23;9.63;;;3.80;1.00;;;;;;5042211;28;20695;-68
2023/01/20 13:06:06;;;;;;;15.10;9.17;;;3.90;1.00;;;;;;5014268;28;20215;-67
2023/01/20 13:08:44;;;;;;;22.43;13.80;;;3.50;1.00;;;;;;5038201;28;20760;-68
2023/01/20 13:11:24;;;;;;;21.17;11.40;;;3.60;1.00;;;;;;5056361;28;20203;-67
2023/01/20 13:13:54;;;;;;;15.17;10.37;;;3.70;1.00;;;;;;5026186;28;20633;-68
2023/01/20 13:16:58;;;;;;;10.60;8.57;;;3.70;1.00;;;;;;5041714;28;20192;-68
2023/01/20 13:19:38;;;;;;;11.27;7.70;;;3.60;1.00;;;;;;5057857;28;20199;-68
2023/01/20 13:22:24;;;;;;;10.50;7.67;;;3.50;1.00;;;;;;5060165;28;20195;-67
2023/01/20 13:24:53;;;;;;;13.00;7.50;;;3.40;1.00;;;;;;5027946;28;20758;-68
2023/01/20 13:27:27;;;;;;;26.37;13.67;;;3.50;1.00;;;;;;5041248;28;20204;-67